Pacific Dawn — 2AGH7 — position and weather

sailwx.info

Track history (hours):
 
Tides and Currents Weather Stations Pressure Air Temp Water Temp Dewpoint Dewpoint Depression Visibility Wind Speed Wind Dir Waves Ship Positions

Pacific Dawn

Last reported at 2017-Jun-26 11:58 UTC. Time now 2017-Jun-26 17:18 UTC.
Position S 22°24' E 166°47'.

Length 245 m; draft 8.3 m.

Type: Passenger vessel. MMSI: 235059368.

Date/timePositionNaut miles runAvg speedWind from/ knotsBaromVisibWave heightAir tempDewpointWater temp
2017-Jun-26 11:58S 22°24' E 166°47'818.0
2017-Jun-26 11:30S 22°23' E 166°38'917.2
2017-Jun-26 11:00S 22°21' E 166°29'5 9.9
2017-Jun-26 10:30S 22°17' E 166°26'1 1.0
2017-Jun-26 09:57S 22°16' E 166°26'0 0.0
2017-Jun-26 09:30S 22°16' E 166°26'0 0.0
2017-Jun-26 09:00S 22°16' E 166°26'0 0.0
2017-Jun-26 08:30S 22°16' E 166°26'0 0.0
2017-Jun-26 08:00S 22°16' E 166°26'0 0.0
2017-Jun-26 07:30S 22°16' E 166°26'0 0.0
2017-Jun-26 07:00S 22°16' E 166°26'0 0.0
2017-Jun-26 06:30S 22°16' E 166°26'0 0.0
2017-Jun-26 06:00S 22°16' E 166°26'0 0.0
2017-Jun-26 05:30S 22°16' E 166°26'0 0.0
2017-Jun-26 05:00S 22°16' E 166°26'0 0.0
2017-Jun-26 04:30S 22°16' E 166°26'0 0.1
2017-Jun-26 04:01S 22°16' E 166°26'2 4.5
2017-Jun-26 03:31S 22°18' E 166°24'714.4
2017-Jun-26 03:00S 22°20' E 166°17'713.2
2017-Jun-26 02:29S 22°25' E 166°12'25116.2
2017-Jun-25 11:00S 23°48' E 161°54'11018.4 180 / 201017.6 5.4 21.017.825.5
2017-Jun-25 05:00S 24°24' E 160°00'23819.8 180 / 211016.210.8 22.015.824.1
2017-Jun-24 17:00S 25°48' E 155°54'9118.3 160 / 101016.910.8 21.014.224.3
2017-Jun-24 12:00S 26°18' E 154°18'5321.2 160 / 161017.410.8 22.0 8.924.7
2017-Jun-24 09:29S 26°39' E 153°24'918.0
2017-Jun-24 09:00S 26°42' E 153°15'710.8
2017-Jun-24 08:20S 26°48' E 153°10'412.5
2017-Jun-24 08:00S 26°53' E 153°10'816.0
2017-Jun-24 07:30S 26°60' E 153°14'815.1
2017-Jun-24 07:00S 27°06' E 153°19'815.6
2017-Jun-24 06:30S 27°13' E 153°20'816.3
2017-Jun-24 06:00S 27°18' E 153°13'611.1
2017-Jun-24 05:31S 27°23' E 153°10'3 6.9
2017-Jun-24 05:01S 27°26' E 153°07'3 5.5
2017-Jun-24 04:31S 27°27' E 153°04'0 0.1
2017-Jun-23 23:16S 27°26' E 153°04'0 0.0
2017-Jun-23 22:58S 27°26' E 153°04'0 0.0
2017-Jun-23 22:22S 27°26' E 153°04'0 0.0
2017-Jun-23 21:58S 27°26' E 153°04'0 0.0
2017-Jun-23 21:28S 27°26' E 153°04'0 0.0
2017-Jun-23 20:55S 27°26' E 153°04'0 0.0
2017-Jun-23 20:25S 27°26' E 153°04'0 0.0
2017-Jun-23 19:58S 27°26' E 153°04'1 1.2
2017-Jun-23 19:30S 27°27' E 153°05'3 6.0
2017-Jun-23 19:00S 27°26' E 153°08'4 7.1
2017-Jun-23 18:30S 27°23' E 153°10'611.5
2017-Jun-23 18:01S 27°18' E 153°13'816.1
2017-Jun-23 17:31S 27°13' E 153°20'815.7
2017-Jun-23 17:01S 27°05' E 153°19'815.4
2017-Jun-23 16:31S 26°59' E 153°14'816.3
2017-Jun-23 16:00S 26°52' E 153°09'612.3
2017-Jun-23 15:30S 26°46' E 153°11'4 8.7
2017-Jun-23 15:00S 26°42' E 153°14'510.2
2017-Jun-23 14:30S 26°40' E 153°19'2811.1
2017-Jun-23 12:00S 26°30' E 153°48'33413.9 050 / 91019.010.8 20.014.925.2
2017-Jun-22 12:00S 24°36' E 159°36'32813.7 180 / 301018.1 5.4 21.014.224.9
2017-Jun-21 12:00S 22°42' E 165°12'5415.0 270 / 171013.4 5.4 24.019.426.5
2017-Jun-21 08:25S 22°26' E 166°07'615.2
2017-Jun-21 08:00S 22°23' E 166°13'612.9
2017-Jun-21 07:30S 22°19' E 166°18'613.0
2017-Jun-21 07:00S 22°15' E 166°24'2 4.9
2017-Jun-21 06:31S 22°16' E 166°26'0 0.0
2017-Jun-21 05:56S 22°16' E 166°26'0 0.0
2017-Jun-21 05:29S 22°16' E 166°26'0 0.0
2017-Jun-21 04:59S 22°16' E 166°26'0 0.0
2017-Jun-21 04:29S 22°16' E 166°26'0 0.0
2017-Jun-21 03:59S 22°16' E 166°26'0 0.0
2017-Jun-21 03:29S 22°16' E 166°26'0 0.0
2017-Jun-21 02:59S 22°16' E 166°26'0 0.0
2017-Jun-21 02:29S 22°16' E 166°26'0 0.0
2017-Jun-21 01:56S 22°16' E 166°26'0 0.0
2017-Jun-21 01:29S 22°16' E 166°26'0 0.0
2017-Jun-21 00:56S 22°16' E 166°26'0 0.0
2017-Jun-21 00:29S 22°16' E 166°26'0 0.0
2017-Jun-20 23:59S 22°16' E 166°26'0 0.0
2017-Jun-20 23:29S 22°16' E 166°26'0 0.0
2017-Jun-20 22:59S 22°16' E 166°26'0 0.0
2017-Jun-20 22:29S 22°16' E 166°26'0 0.0
2017-Jun-20 21:59S 22°16' E 166°26'0 0.0
2017-Jun-20 21:29S 22°16' E 166°26'0 0.1
2017-Jun-20 21:00S 22°16' E 166°26'2 4.4
2017-Jun-20 20:30S 22°15' E 166°24'4 7.5
2017-Jun-20 20:01S 22°18' E 166°25'815.9
2017-Jun-20 19:30S 22°22' E 166°33'916.9
2017-Jun-20 19:00S 22°23' E 166°42'252 7.9
2017-Jun-19 11:00S 18°30' E 168°24'   100 / 251012.6 5.4 25.022.026.9
Track history (hours):
 
Tides and Currents Weather Stations Pressure Air Temp Water Temp Dewpoint Dewpoint Depression Visibility Wind Speed Wind Dir Waves Ship Positions

Pacific Dawn

Last reported at 2017-Jun-26 11:58 UTC. Time now 2017-Jun-26 17:18 UTC.
Position S 22°24' E 166°47'.

Length 245 m; draft 8.3 m.

Type: Passenger vessel. MMSI: 235059368.

Date/timePositionNaut miles runAvg speedWind from/ knotsBaromVisibWave heightAir tempDewpointWater temp
2017-Jun-26 11:58S 22°24' E 166°47'818.0
2017-Jun-26 11:30S 22°23' E 166°38'917.2
2017-Jun-26 11:00S 22°21' E 166°29'5 9.9
2017-Jun-26 10:30S 22°17' E 166°26'1 1.0
2017-Jun-26 09:57S 22°16' E 166°26'0 0.0
2017-Jun-26 09:30S 22°16' E 166°26'0 0.0
2017-Jun-26 09:00S 22°16' E 166°26'0 0.0
2017-Jun-26 08:30S 22°16' E 166°26'0 0.0
2017-Jun-26 08:00S 22°16' E 166°26'0 0.0
2017-Jun-26 07:30S 22°16' E 166°26'0 0.0
2017-Jun-26 07:00S 22°16' E 166°26'0 0.0
2017-Jun-26 06:30S 22°16' E 166°26'0 0.0
2017-Jun-26 06:00S 22°16' E 166°26'0 0.0
2017-Jun-26 05:30S 22°16' E 166°26'0 0.0
2017-Jun-26 05:00S 22°16' E 166°26'0 0.0
2017-Jun-26 04:30S 22°16' E 166°26'0 0.1
2017-Jun-26 04:01S 22°16' E 166°26'2 4.5
2017-Jun-26 03:31S 22°18' E 166°24'714.4
2017-Jun-26 03:00S 22°20' E 166°17'713.2
2017-Jun-26 02:29S 22°25' E 166°12'25116.2
2017-Jun-25 11:00S 23°48' E 161°54'11018.4 180 / 201017.6 5.4 21.017.825.5
2017-Jun-25 05:00S 24°24' E 160°00'23819.8 180 / 211016.210.8 22.015.824.1
2017-Jun-24 17:00S 25°48' E 155°54'9118.3 160 / 101016.910.8 21.014.224.3
2017-Jun-24 12:00S 26°18' E 154°18'5321.2 160 / 161017.410.8 22.0 8.924.7
2017-Jun-24 09:29S 26°39' E 153°24'918.0
2017-Jun-24 09:00S 26°42' E 153°15'710.8
2017-Jun-24 08:20S 26°48' E 153°10'412.5
2017-Jun-24 08:00S 26°53' E 153°10'816.0
2017-Jun-24 07:30S 26°60' E 153°14'815.1
2017-Jun-24 07:00S 27°06' E 153°19'815.6
2017-Jun-24 06:30S 27°13' E 153°20'816.3
2017-Jun-24 06:00S 27°18' E 153°13'611.1
2017-Jun-24 05:31S 27°23' E 153°10'3 6.9
2017-Jun-24 05:01S 27°26' E 153°07'3 5.5
2017-Jun-24 04:31S 27°27' E 153°04'0 0.1
2017-Jun-23 23:16S 27°26' E 153°04'0 0.0
2017-Jun-23 22:58S 27°26' E 153°04'0 0.0
2017-Jun-23 22:22S 27°26' E 153°04'0 0.0
2017-Jun-23 21:58S 27°26' E 153°04'0 0.0
2017-Jun-23 21:28S 27°26' E 153°04'0 0.0
2017-Jun-23 20:55S 27°26' E 153°04'0 0.0
2017-Jun-23 20:25S 27°26' E 153°04'0 0.0
2017-Jun-23 19:58S 27°26' E 153°04'1 1.2
2017-Jun-23 19:30S 27°27' E 153°05'3 6.0
2017-Jun-23 19:00S 27°26' E 153°08'4 7.1
2017-Jun-23 18:30S 27°23' E 153°10'611.5
2017-Jun-23 18:01S 27°18' E 153°13'816.1
2017-Jun-23 17:31S 27°13' E 153°20'815.7
2017-Jun-23 17:01S 27°05' E 153°19'815.4
2017-Jun-23 16:31S 26°59' E 153°14'816.3
2017-Jun-23 16:00S 26°52' E 153°09'612.3
2017-Jun-23 15:30S 26°46' E 153°11'4 8.7
2017-Jun-23 15:00S 26°42' E 153°14'510.2
2017-Jun-23 14:30S 26°40' E 153°19'2811.1
2017-Jun-23 12:00S 26°30' E 153°48'33413.9 050 / 91019.010.8 20.014.925.2
2017-Jun-22 12:00S 24°36' E 159°36'32813.7 180 / 301018.1 5.4 21.014.224.9
2017-Jun-21 12:00S 22°42' E 165°12'5415.0 270 / 171013.4 5.4 24.019.426.5
2017-Jun-21 08:25S 22°26' E 166°07'615.2
2017-Jun-21 08:00S 22°23' E 166°13'612.9
2017-Jun-21 07:30S 22°19' E 166°18'613.0
2017-Jun-21 07:00S 22°15' E 166°24'2 4.9
2017-Jun-21 06:31S 22°16' E 166°26'0 0.0
2017-Jun-21 05:56S 22°16' E 166°26'0 0.0
2017-Jun-21 05:29S 22°16' E 166°26'0 0.0
2017-Jun-21 04:59S 22°16' E 166°26'0 0.0
2017-Jun-21 04:29S 22°16' E 166°26'0 0.0
2017-Jun-21 03:59S 22°16' E 166°26'0 0.0
2017-Jun-21 03:29S 22°16' E 166°26'0 0.0
2017-Jun-21 02:59S 22°16' E 166°26'0 0.0
2017-Jun-21 02:29S 22°16' E 166°26'0 0.0
2017-Jun-21 01:56S 22°16' E 166°26'0 0.0
2017-Jun-21 01:29S 22°16' E 166°26'0 0.0
2017-Jun-21 00:56S 22°16' E 166°26'0 0.0
2017-Jun-21 00:29S 22°16' E 166°26'0 0.0
2017-Jun-20 23:59S 22°16' E 166°26'0 0.0
2017-Jun-20 23:29S 22°16' E 166°26'0 0.0
2017-Jun-20 22:59S 22°16' E 166°26'0 0.0
2017-Jun-20 22:29S 22°16' E 166°26'0 0.0
2017-Jun-20 21:59S 22°16' E 166°26'0 0.0
2017-Jun-20 21:29S 22°16' E 166°26'0 0.1
2017-Jun-20 21:00S 22°16' E 166°26'2 4.4
2017-Jun-20 20:30S 22°15' E 166°24'4 7.5
2017-Jun-20 20:01S 22°18' E 166°25'815.9
2017-Jun-20 19:30S 22°22' E 166°33'916.9
2017-Jun-20 19:00S 22°23' E 166°42'252 7.9
2017-Jun-19 11:00S 18°30' E 168°24'   100 / 251012.6 5.4 25.022.026.9

Dump ship's entire track history